Time;durP1;ratioP1;P1;durP2;ratioP2;P2;SDS_P1;SDS_P2;PMS_P1;PMS_P2;Temp;Humidity;BMP_temperature;BMP_pressure;BME280_temperature;BME280_humidity;BME280_pressure;Samples;Min_cycle;Max_cycle;Signal;HPM_P1;HPM_P2
2021/06/03 00:01:21;;;;;;;8.65;4.25;;;;;;;;;;6195942;23;20291;-89
2021/06/03 00:04:27;;;;;;;8.02;4.45;;;;;;;;;;6194795;23;20187;-89
2021/06/03 00:07:33;;;;;;;11.82;4.28;;;;;;;;;;6195042;23;20171;-88
2021/06/03 00:10:39;;;;;;;8.93;4.60;;;;;;;;;;6195367;23;20208;-89
2021/06/03 00:13:46;;;;;;;11.30;4.80;;;;;;;;;;6193060;23;20619;-89
2021/06/03 00:16:50;;;;;;;7.85;4.30;;;;;;;;;;6194080;23;20241;-91
2021/06/03 00:19:56;;;;;;;10.02;5.22;;;;;;;;;;6194126;23;20175;-91
2021/06/03 00:23:01;;;;;;;8.60;4.47;;;;;;;;;;6195231;23;20187;-91
2021/06/03 00:26:05;;;;;;;10.40;4.90;;;;;;;;;;6195861;23;20176;-90
2021/06/03 00:29:11;;;;;;;11.30;5.03;;;;;;;;;;6208481;23;20227;-88
2021/06/03 00:32:15;;;;;;;8.10;5.20;;;;;;;;;;6208678;23;20212;-91
2021/06/03 00:35:21;;;;;;;12.88;5.13;;;;;;;;;;6208809;23;20246;-90
2021/06/03 00:38:25;;;;;;;8.30;5.40;;;;;;;;;;6208812;23;20179;-90
2021/06/03 00:41:30;;;;;;;8.40;4.90;;;;;;;;;;6208662;23;20175;-90
2021/06/03 00:44:35;;;;;;;13.00;4.43;;;;;;;;;;6209921;23;20178;-90
2021/06/03 00:47:40;;;;;;;12.93;4.65;;;;;;;;;;6207787;23;20195;-91
2021/06/03 00:50:47;;;;;;;8.07;4.32;;;;;;;;;;6207375;23;20610;-90
2021/06/03 00:53:52;;;;;;;7.45;4.50;;;;;;;;;;6206885;23;20171;-90
2021/06/03 00:56:57;;;;;;;8.35;4.72;;;;;;;;;;6207216;23;20171;-91
2021/06/03 01:00:01;;;;;;;9.15;4.80;;;;;;;;;;6208082;23;20163;-90
2021/06/03 01:03:07;;;;;;;9.95;5.15;;;;;;;;;;6208088;23;20730;-90
2021/06/03 01:06:16;;;;;;;11.57;4.78;;;;;;;;;;6209030;23;20174;-90
2021/06/03 01:09:28;;;;;;;10.13;5.32;;;;;;;;;;6208638;23;20239;-90
2021/06/03 01:12:36;;;;;;;9.70;5.20;;;;;;;;;;6208479;23;20155;-90
2021/06/03 01:15:42;;;;;;;12.07;5.60;;;;;;;;;;6209906;23;20259;-91
2021/06/03 01:18:48;;;;;;;12.93;5.05;;;;;;;;;;6226776;23;20179;-90
2021/06/03 01:21:57;;;;;;;8.90;5.43;;;;;;;;;;6209619;23;20171;-90
2021/06/03 01:25:07;;;;;;;12.40;5.45;;;;;;;;;;6208213;23;20230;-90
2021/06/03 01:28:13;;;;;;;12.88;5.97;;;;;;;;;;6195117;23;20179;-88
2021/06/03 01:31:17;;;;;;;10.27;5.40;;;;;;;;;;6194115;23;20191;-89
2021/06/03 01:34:23;;;;;;;9.32;5.40;;;;;;;;;;6193371;23;20168;-90
2021/06/03 01:37:27;;;;;;;9.35;4.97;;;;;;;;;;6193521;23;20172;-89
2021/06/03 01:40:35;;;;;;;10.48;5.13;;;;;;;;;;6194569;23;20172;-91
2021/06/03 01:43:41;;;;;;;14.18;5.28;;;;;;;;;;6193333;23;20176;-90
2021/06/03 01:46:46;;;;;;;11.02;5.03;;;;;;;;;;6195745;23;20187;-89
2021/06/03 01:49:50;;;;;;;9.65;4.80;;;;;;;;;;6196165;23;20195;-90
2021/06/03 01:52:59;;;;;;;10.35;4.63;;;;;;;;;;6195765;23;20195;-90
2021/06/03 01:56:07;;;;;;;9.25;5.25;;;;;;;;;;6195428;23;20618;-90
2021/06/03 01:59:12;;;;;;;7.43;4.50;;;;;;;;;;6194475;23;20171;-90
2021/06/03 02:02:18;;;;;;;8.70;4.82;;;;;;;;;;6194697;23;20179;-90
2021/06/03 02:05:23;;;;;;;10.70;4.85;;;;;;;;;;6193905;23;20299;-90
2021/06/03 02:08:28;;;;;;;12.10;5.35;;;;;;;;;;6194423;23;20167;-89
2021/06/03 02:11:49;;;;;;;10.57;4.85;;;;;;;;;;6193565;23;20222;-90
2021/06/03 02:15:01;;;;;;;11.25;5.10;;;;;;;;;;6192893;23;20192;-90
2021/06/03 02:18:07;;;;;;;9.82;5.10;;;;;;;;;;6193735;23;20183;-90
2021/06/03 02:21:12;;;;;;;11.77;4.95;;;;;;;;;;6193088;23;20207;-90
2021/06/03 02:24:17;;;;;;;10.48;4.95;;;;;;;;;;6194054;23;20679;-90
2021/06/03 02:27:26;;;;;;;7.68;4.88;;;;;;;;;;6193756;23;20211;-90
2021/06/03 02:30:33;;;;;;;9.38;4.88;;;;;;;;;;6193339;23;20647;-90
2021/06/03 02:33:37;;;;;;;10.50;4.93;;;;;;;;;;6193455;23;20634;-90
2021/06/03 02:36:43;;;;;;;10.32;5.10;;;;;;;;;;6192344;23;20199;-90
2021/06/03 02:39:49;;;;;;;11.45;5.25;;;;;;;;;;6192446;23;20172;-90
2021/06/03 02:42:57;;;;;;;10.32;5.38;;;;;;;;;;6192309;23;20594;-90
2021/06/03 02:46:02;;;;;;;11.33;5.07;;;;;;;;;;6192784;23;20251;-90
2021/06/03 02:49:08;;;;;;;9.88;4.95;;;;;;;;;;6193162;23;20192;-90
2021/06/03 02:52:13;;;;;;;7.45;4.78;;;;;;;;;;6193624;23;20195;-89
2021/06/03 02:55:23;;;;;;;10.40;4.93;;;;;;;;;;6190605;23;20168;-90
2021/06/03 02:58:34;;;;;;;7.33;4.90;;;;;;;;;;6193216;23;20219;-90
2021/06/03 03:01:40;;;;;;;8.38;5.25;;;;;;;;;;6191761;23;20164;-90
2021/06/03 03:04:45;;;;;;;10.35;5.00;;;;;;;;;;6191468;23;20501;-90
2021/06/03 03:07:50;;;;;;;9.70;4.97;;;;;;;;;;6191443;23;20206;-90
2021/06/03 03:10:56;;;;;;;8.10;4.53;;;;;;;;;;6190403;23;20202;-91
2021/06/03 03:14:06;;;;;;;8.55;4.13;;;;;;;;;;6192242;23;20178;-89
2021/06/03 03:17:16;;;;;;;9.57;4.40;;;;;;;;;;6191257;23;20172;-90
2021/06/03 03:20:22;;;;;;;7.47;4.63;;;;;;;;;;6190990;23;20614;-90
2021/06/03 03:23:26;;;;;;;9.68;4.40;;;;;;;;;;6191103;23;20176;-91
2021/06/03 03:26:33;;;;;;;8.50;4.03;;;;;;;;;;6197243;23;20222;-90
2021/06/03 03:29:40;;;;;;;8.25;4.38;;;;;;;;;;6203982;23;20673;-87
2021/06/03 03:32:45;;;;;;;12.02;4.90;;;;;;;;;;6205173;23;20195;-90
2021/06/03 03:35:49;;;;;;;7.77;4.60;;;;;;;;;;6205036;23;20269;-90
2021/06/03 03:38:56;;;;;;;12.37;4.63;;;;;;;;;;6204905;23;20219;-90
2021/06/03 03:42:01;;;;;;;7.88;4.50;;;;;;;;;;6205400;23;20178;-90
2021/06/03 03:45:09;;;;;;;11.00;4.68;;;;;;;;;;6203623;23;20222;-90
2021/06/03 03:48:15;;;;;;;8.70;4.82;;;;;;;;;;6204263;23;20175;-89
2021/06/03 03:51:21;;;;;;;8.30;4.50;;;;;;;;;;6204081;23;20171;-90
2021/06/03 03:54:26;;;;;;;10.50;4.80;;;;;;;;;;6203831;23;20191;-90
2021/06/03 03:57:30;;;;;;;8.82;4.78;;;;;;;;;;6203827;23;20171;-90
2021/06/03 04:00:42;;;;;;;10.47;4.53;;;;;;;;;;6203045;23;20171;-90
2021/06/03 04:04:21;;;;;;;8.43;4.43;;;;;;;;;;6204465;23;20614;-89
2021/06/03 04:07:26;;;;;;;10.40;4.97;;;;;;;;;;6206339;23;20171;-90
2021/06/03 04:10:32;;;;;;;7.65;4.50;;;;;;;;;;6205761;23;20202;-90
2021/06/03 04:13:38;;;;;;;6.57;4.25;;;;;;;;;;6205533;23;20211;-90
2021/06/03 04:16:49;;;;;;;7.77;4.40;;;;;;;;;;6204309;23;20236;-90
2021/06/03 04:19:59;;;;;;;9.82;4.97;;;;;;;;;;6203712;23;20170;-89
2021/06/03 04:23:04;;;;;;;7.73;4.73;;;;;;;;;;6203850;23;20172;-89
2021/06/03 04:26:12;;;;;;;7.93;4.78;;;;;;;;;;6204766;23;20171;-91
2021/06/03 04:29:17;;;;;;;10.50;4.50;;;;;;;;;;6204851;23;20242;-89
2021/06/03 04:32:22;;;;;;;8.40;4.87;;;;;;;;;;6204369;23;20547;-89
2021/06/03 04:35:26;;;;;;;7.67;4.80;;;;;;;;;;6204715;23;20167;-90
2021/06/03 04:38:31;;;;;;;10.20;5.13;;;;;;;;;;6205954;23;20190;-90
2021/06/03 04:41:35;;;;;;;7.73;4.83;;;;;;;;;;6206310;23;20172;-89
2021/06/03 04:44:40;;;;;;;8.93;4.70;;;;;;;;;;6206161;23;20175;-89
2021/06/03 04:47:46;;;;;;;7.88;5.28;;;;;;;;;;6205974;23;20222;-89
2021/06/03 04:50:51;;;;;;;9.30;5.03;;;;;;;;;;6206464;23;20194;-90
2021/06/03 04:53:55;;;;;;;8.57;4.72;;;;;;;;;;6206406;23;20167;-90
2021/06/03 04:57:00;;;;;;;9.00;5.40;;;;;;;;;;6206534;23;20210;-91
2021/06/03 05:00:07;;;;;;;9.38;4.75;;;;;;;;;;6206070;23;20167;-90
2021/06/03 05:03:14;;;;;;;8.30;4.78;;;;;;;;;;6207881;23;20247;-91
2021/06/03 05:06:19;;;;;;;6.32;4.18;;;;;;;;;;6208670;23;20174;-90
2021/06/03 05:09:24;;;;;;;7.25;4.07;;;;;;;;;;6207961;23;20237;-89
2021/06/03 05:12:28;;;;;;;15.18;4.05;;;;;;;;;;6207453;23;20191;-89
2021/06/03 05:15:33;;;;;;;6.63;4.00;;;;;;;;;;6207148;23;20218;-89
2021/06/03 05:18:39;;;;;;;6.45;3.88;;;;;;;;;;6208688;23;20167;-90
2021/06/03 05:21:44;;;;;;;8.52;4.03;;;;;;;;;;6206859;23;20170;-90
2021/06/03 05:24:49;;;;;;;7.38;4.30;;;;;;;;;;6207832;23;20175;-90
2021/06/03 05:27:53;;;;;;;8.73;4.32;;;;;;;;;;6194579;23;20195;-91
2021/06/03 05:30:58;;;;;;;6.45;3.90;;;;;;;;;;6194506;23;20215;-90
2021/06/03 05:34:04;;;;;;;6.00;3.70;;;;;;;;;;6176510;23;20182;-90
2021/06/03 05:37:09;;;;;;;7.78;4.00;;;;;;;;;;6192792;23;20240;-90
2021/06/03 05:40:14;;;;;;;8.52;4.28;;;;;;;;;;6193229;23;20616;-90
2021/06/03 05:43:19;;;;;;;8.13;3.80;;;;;;;;;;6192968;23;20176;-90
2021/06/03 05:46:23;;;;;;;8.77;4.10;;;;;;;;;;6193938;23;20168;-91
2021/06/03 05:49:29;;;;;;;6.85;3.90;;;;;;;;;;6192485;23;20268;-91
2021/06/03 05:52:33;;;;;;;6.38;3.97;;;;;;;;;;6192577;23;20172;-90
2021/06/03 05:55:38;;;;;;;9.23;3.78;;;;;;;;;;6194187;23;20203;-91
2021/06/03 05:58:42;;;;;;;6.35;4.15;;;;;;;;;;6194226;23;20171;-89
2021/06/03 06:01:47;;;;;;;8.15;3.80;;;;;;;;;;6192998;23;20554;-91
2021/06/03 06:08:16;;;;;;;9.75;4.32;;;;;;;;;;6193020;23;20168;-89
2021/06/03 06:11:24;;;;;;;6.80;3.58;;;;;;;;;;6193832;23;20223;-91
2021/06/03 06:14:28;;;;;;;8.52;3.95;;;;;;;;;;6192869;23;20655;-91
2021/06/03 06:17:32;;;;;;;5.63;3.90;;;;;;;;;;6195316;23;20147;-91
2021/06/03 06:20:39;;;;;;;5.20;3.60;;;;;;;;;;6195037;23;20183;-91
2021/06/03 06:23:44;;;;;;;8.35;3.88;;;;;;;;;;6195286;23;20197;-92
2021/06/03 06:26:48;;;;;;;8.40;3.90;;;;;;;;;;6204863;23;20190;-91
2021/06/03 06:29:53;;;;;;;5.55;3.47;;;;;;;;;;6209705;23;20194;-91
2021/06/03 06:32:57;;;;;;;9.65;3.80;;;;;;;;;;6207775;23;20650;-92
2021/06/03 06:36:03;;;;;;;8.82;3.42;;;;;;;;;;6207744;23;20214;-92
2021/06/03 06:39:08;;;;;;;10.20;3.80;;;;;;;;;;6206797;23;20184;-91
2021/06/03 06:42:12;;;;;;;6.90;2.92;;;;;;;;;;6205914;23;20171;-90
2021/06/03 06:45:17;;;;;;;8.93;3.22;;;;;;;;;;6206587;23;20220;-90
2021/06/03 06:48:21;;;;;;;7.05;3.28;;;;;;;;;;6206183;23;20650;-92
2021/06/03 06:51:27;;;;;;;9.07;4.40;;;;;;;;;;6207054;23;20171;-91
2021/06/03 06:54:31;;;;;;;5.88;3.45;;;;;;;;;;6207467;23;20168;-91
2021/06/03 06:57:36;;;;;;;6.63;3.13;;;;;;;;;;6209723;23;20194;-90
2021/06/03 07:00:42;;;;;;;4.82;3.28;;;;;;;;;;6208410;23;20240;-92
2021/06/03 07:03:47;;;;;;;5.93;3.10;;;;;;;;;;6208310;23;20167;-92
2021/06/03 07:06:52;;;;;;;7.35;3.00;;;;;;;;;;6206998;23;20170;-91
2021/06/03 07:09:57;;;;;;;6.97;2.85;;;;;;;;;;6207699;23;20218;-92
2021/06/03 07:13:02;;;;;;;4.40;2.92;;;;;;;;;;6207232;23;20179;-92
2021/06/03 07:16:06;;;;;;;8.57;2.80;;;;;;;;;;6207011;23;20201;-92
2021/06/03 07:19:11;;;;;;;4.80;2.67;;;;;;;;;;6209008;23;20191;-92
2021/06/03 07:22:17;;;;;;;8.23;4.72;;;;;;;;;;6208827;23;20175;-91
2021/06/03 07:25:25;;;;;;;8.23;3.00;;;;;;;;;;6226686;23;20174;-91
2021/06/03 07:28:29;;;;;;;4.05;2.70;;;;;;;;;;6207580;23;20211;-92
2021/06/03 07:31:35;;;;;;;5.18;2.70;;;;;;;;;;6208354;23;20167;-90
2021/06/03 07:34:39;;;;;;;5.68;2.53;;;;;;;;;;6209096;23;20179;-92
2021/06/03 07:37:53;;;;;;;5.78;2.55;;;;;;;;;;6208590;23;20178;-90
2021/06/03 07:41:02;;;;;;;5.93;2.50;;;;;;;;;;6208319;23;20155;-92
2021/06/03 07:44:06;;;;;;;3.90;2.40;;;;;;;;;;6191335;23;20171;-92
2021/06/03 07:47:11;;;;;;;4.97;2.60;;;;;;;;;;6207029;23;20187;-90
2021/06/03 07:50:18;;;;;;;4.68;2.40;;;;;;;;;;6207785;23;20195;-93
2021/06/03 07:53:23;;;;;;;5.30;2.40;;;;;;;;;;6206825;23;20191;-93
2021/06/03 07:56:28;;;;;;;8.60;3.00;;;;;;;;;;6207691;23;20170;-92
2021/06/03 07:59:32;;;;;;;6.57;2.90;;;;;;;;;;6206672;23;20199;-93
2021/06/03 08:02:38;;;;;;;5.82;2.80;;;;;;;;;;6208057;23;20214;-92
2021/06/03 08:05:44;;;;;;;6.25;2.70;;;;;;;;;;6210473;23;20683;-89
2021/06/03 08:08:50;;;;;;;4.00;2.88;;;;;;;;;;6209482;23;20230;-91
2021/06/03 08:11:55;;;;;;;6.78;3.08;;;;;;;;;;6207754;23;20175;-91
2021/06/03 08:14:59;;;;;;;8.07;2.80;;;;;;;;;;6211680;23;20162;-93
2021/06/03 08:18:04;;;;;;;3.75;2.42;;;;;;;;;;6213830;23;20234;-93
2021/06/03 08:21:09;;;;;;;4.32;2.42;;;;;;;;;;6209305;23;20239;-93
2021/06/03 08:24:15;;;;;;;5.78;2.63;;;;;;;;;;6210088;23;20171;-92
2021/06/03 08:27:20;;;;;;;5.63;2.75;;;;;;;;;;6196721;23;20207;-91
2021/06/03 08:30:24;;;;;;;6.40;2.67;;;;;;;;;;6197895;23;20188;-92
2021/06/03 08:33:29;;;;;;;4.80;2.88;;;;;;;;;;6195375;23;20167;-92
2021/06/03 08:36:36;;;;;;;6.43;2.90;;;;;;;;;;6196567;23;20244;-92
2021/06/03 08:39:42;;;;;;;7.47;3.10;;;;;;;;;;6198546;23;20610;-92
2021/06/03 08:42:47;;;;;;;5.63;2.72;;;;;;;;;;6201322;23;20163;-92
2021/06/03 08:45:52;;;;;;;4.22;2.55;;;;;;;;;;6197988;23;20227;-92
2021/06/03 08:48:57;;;;;;;10.82;2.88;;;;;;;;;;6197167;23;20294;-92
2021/06/03 08:52:03;;;;;;;10.10;3.10;;;;;;;;;;6197832;23;20195;-92
2021/06/03 08:56:14;;;;;;;8.15;2.67;;;;;;;;;;6198793;23;20262;-93
2021/06/03 08:58:41;;;;;;;13.07;3.40;;;;;;;;;;6197849;23;20190;-93
2021/06/03 09:01:47;;;;;;;4.63;3.05;;;;;;;;;;6196956;23;20198;-93
2021/06/03 09:04:52;;;;;;;5.80;2.85;;;;;;;;;;6196852;23;20167;-92
2021/06/03 09:08:00;;;;;;;4.72;2.92;;;;;;;;;;6196192;23;20178;-91
2021/06/03 09:11:08;;;;;;;6.03;3.00;;;;;;;;;;6198116;23;20191;-92
2021/06/03 09:14:17;;;;;;;10.88;3.63;;;;;;;;;;6199489;23;20166;-92
2021/06/03 09:17:21;;;;;;;6.45;3.38;;;;;;;;;;6201158;23;20183;-94
2021/06/03 09:20:26;;;;;;;8.05;3.17;;;;;;;;;;6198000;23;20496;-92
2021/06/03 09:23:31;;;;;;;5.57;2.70;;;;;;;;;;6199301;23;20776;-93
2021/06/03 09:26:48;;;;;;;7.82;3.25;;;;;;;;;;6205216;23;20236;-91
2021/06/03 09:30:01;;;;;;;5.68;3.08;;;;;;;;;;6209468;23;20214;-94
2021/06/03 09:33:06;;;;;;;7.57;2.72;;;;;;;;;;6209327;23;20222;-94
2021/06/03 09:36:11;;;;;;;4.60;2.40;;;;;;;;;;6209849;23;20171;-94
2021/06/03 09:39:21;;;;;;;4.63;2.35;;;;;;;;;;6209511;23;20174;-93
2021/06/03 09:42:27;;;;;;;7.07;2.60;;;;;;;;;;6209015;23;20159;-93
2021/06/03 09:45:46;;;;;;;6.70;2.60;;;;;;;;;;6207923;23;20170;-91
2021/06/03 09:48:52;;;;;;;3.47;2.45;;;;;;;;;;6209316;23;20166;-93
2021/06/03 09:52:01;;;;;;;8.73;4.72;;;;;;;;;;6207939;23;20190;-92
2021/06/03 09:55:07;;;;;;;3.28;2.40;;;;;;;;;;6208249;23;20391;-91
2021/06/03 09:58:33;;;;;;;3.10;2.22;;;;;;;;;;6210936;23;20198;-92
2021/06/03 10:01:44;;;;;;;7.05;2.50;;;;;;;;;;6208620;23;20171;-91
2021/06/03 10:04:49;;;;;;;8.07;2.50;;;;;;;;;;6208695;23;20171;-93
2021/06/03 10:07:54;;;;;;;4.03;2.38;;;;;;;;;;6210288;23;20215;-92
2021/06/03 10:10:59;;;;;;;3.90;2.60;;;;;;;;;;6210796;23;20273;-91
2021/06/03 10:14:10;;;;;;;6.07;2.50;;;;;;;;;;6212495;23;20194;-92
2021/06/03 10:17:19;;;;;;;4.85;2.28;;;;;;;;;;6211397;23;20155;-90
2021/06/03 10:20:25;;;;;;;8.20;2.70;;;;;;;;;;6211345;23;20174;-91
2021/06/03 10:23:31;;;;;;;5.88;2.45;;;;;;;;;;6211137;23;20232;-94
2021/06/03 10:26:51;;;;;;;5.45;2.85;;;;;;;;;;6210168;23;20212;-92
2021/06/03 10:29:55;;;;;;;7.30;2.55;;;;;;;;;;6209047;23;20317;-91
2021/06/03 10:33:03;;;;;;;6.65;2.75;;;;;;;;;;6208264;23;20221;-91
2021/06/03 10:36:09;;;;;;;5.50;2.63;;;;;;;;;;6212016;23;20173;-90
2021/06/03 10:39:13;;;;;;;3.38;2.63;;;;;;;;;;6208194;23;20161;-92
2021/06/03 10:42:19;;;;;;;8.65;3.08;;;;;;;;;;6208288;23;20202;-90
2021/06/03 10:45:25;;;;;;;4.68;2.85;;;;;;;;;;6226134;23;20306;-90
2021/06/03 10:48:32;;;;;;;4.82;2.60;;;;;;;;;;6208713;23;20185;-92
2021/06/03 10:51:41;;;;;;;7.53;2.90;;;;;;;;;;6208216;23;20214;-89
2021/06/03 10:54:51;;;;;;;8.40;2.78;;;;;;;;;;6206662;23;20166;-91
2021/06/03 10:57:58;;;;;;;6.32;2.90;;;;;;;;;;6208789;23;20166;-92
2021/06/03 11:01:04;;;;;;;8.55;2.80;;;;;;;;;;6206674;23;20153;-92
2021/06/03 11:04:27;;;;;;;4.07;2.60;;;;;;;;;;6209006;23;20601;-91
2021/06/03 11:07:34;;;;;;;5.18;2.45;;;;;;;;;;6209926;23;20278;-92
2021/06/03 11:10:39;;;;;;;3.45;2.55;;;;;;;;;;6209178;23;20252;-91
2021/06/03 11:13:58;;;;;;;4.68;2.72;;;;;;;;;;6209369;23;20718;-91
2021/06/03 11:17:03;;;;;;;7.93;2.95;;;;;;;;;;6209138;23;20166;-92
2021/06/03 11:20:10;;;;;;;6.18;2.72;;;;;;;;;;6208488;23;20170;-92
2021/06/03 11:23:38;;;;;;;13.25;3.00;;;;;;;;;;6205868;23;20165;-91
2021/06/03 11:26:53;;;;;;;5.55;2.70;;;;;;;;;;6205704;23;20523;-92
2021/06/03 11:29:59;;;;;;;3.88;2.13;;;;;;;;;;6207077;23;20194;-93
2021/06/03 11:33:03;;;;;;;3.28;2.35;;;;;;;;;;6206614;23;20505;-93
2021/06/03 11:36:23;;;;;;;3.70;2.72;;;;;;;;;;6207111;23;20167;-93
2021/06/03 11:39:41;;;;;;;4.63;2.20;;;;;;;;;;6205973;23;20166;-91
2021/06/03 11:42:47;;;;;;;2.67;2.20;;;;;;;;;;6205530;23;20617;-92
2021/06/03 11:45:51;;;;;;;6.18;2.40;;;;;;;;;;6206894;23;20668;-93
2021/06/03 11:48:56;;;;;;;5.53;2.75;;;;;;;;;;6226010;23;20213;-91
2021/06/03 11:52:09;;;;;;;6.57;2.30;;;;;;;;;;6208046;23;20220;-92
2021/06/03 11:55:26;;;;;;;4.32;2.35;;;;;;;;;;6209091;23;20166;-92
2021/06/03 11:58:32;;;;;;;3.47;2.03;;;;;;;;;;6208884;23;20182;-93
2021/06/03 12:01:38;;;;;;;5.90;2.15;;;;;;;;;;6226289;23;20885;-92
2021/06/03 12:05:08;;;;;;;4.90;2.33;;;;;;;;;;6207634;23;20225;-92
2021/06/03 12:08:31;;;;;;;3.20;2.25;;;;;;;;;;6207380;23;20550;-92
2021/06/03 12:11:45;;;;;;;6.60;2.20;;;;;;;;;;6209805;23;20189;-92
2021/06/03 12:14:50;;;;;;;5.55;3.20;;;;;;;;;;6211400;23;20183;-93
2021/06/03 12:17:55;;;;;;;3.50;2.10;;;;;;;;;;6210473;23;20186;-92
2021/06/03 12:21:01;;;;;;;3.92;1.90;;;;;;;;;;6228481;23;20166;-92
2021/06/03 12:24:06;;;;;;;3.22;1.90;;;;;;;;;;6210337;23;20170;-93
2021/06/03 12:27:20;;;;;;;5.03;1.98;;;;;;;;;;6201769;23;20175;-91
2021/06/03 12:30:29;;;;;;;5.35;1.70;;;;;;;;;;6200523;23;20234;-92
2021/06/03 12:33:36;;;;;;;6.25;1.73;;;;;;;;;;6199381;23;20252;-92
2021/06/03 12:36:40;;;;;;;3.92;1.70;;;;;;;;;;6199204;23;20196;-93
2021/06/03 12:39:45;;;;;;;4.25;2.00;;;;;;;;;;6199552;23;20172;-89
2021/06/03 12:43:07;;;;;;;5.45;1.80;;;;;;;;;;6172895;23;20219;-92
2021/06/03 12:46:13;;;;;;;7.25;1.95;;;;;;;;;;6168638;23;20168;-92
2021/06/03 12:49:18;;;;;;;1.95;1.42;;;;;;;;;;6151466;23;20223;-91
2021/06/03 12:52:28;;;;;;;2.33;1.63;;;;;;;;;;6152374;23;20177;-93
2021/06/03 12:55:33;;;;;;;2.13;1.40;;;;;;;;;;6153367;23;20168;-92
2021/06/03 12:58:45;;;;;;;4.18;1.58;;;;;;;;;;6153872;23;20239;-91
2021/06/03 13:01:56;;;;;;;1.95;1.60;;;;;;;;;;6153744;23;20221;-91
2021/06/03 13:05:01;;;;;;;3.90;1.45;;;;;;;;;;6153629;23;20611;-91
2021/06/03 13:08:06;;;;;;;4.25;1.52;;;;;;;;;;6153829;23;20165;-91
2021/06/03 13:11:11;;;;;;;1.73;1.50;;;;;;;;;;6153143;23;20216;-93
2021/06/03 13:14:18;;;;;;;2.80;1.45;;;;;;;;;;6153897;23;20306;-91
2021/06/03 13:17:25;;;;;;;3.78;1.70;;;;;;;;;;6153904;23;20219;-91
2021/06/03 13:20:31;;;;;;;1.73;1.45;;;;;;;;;;6154482;23;20172;-92
2021/06/03 13:23:41;;;;;;;2.90;1.30;;;;;;;;;;6152107;23;20188;-93
2021/06/03 13:26:45;;;;;;;3.22;1.42;;;;;;;;;;6151527;23;20180;-92
2021/06/03 13:29:53;;;;;;;2.35;1.40;;;;;;;;;;6151993;23;20623;-91
2021/06/03 13:33:05;;;;;;;2.85;1.60;;;;;;;;;;6151711;23;20180;-91
2021/06/03 13:36:13;;;;;;;2.30;1.35;;;;;;;;;;6151570;23;20195;-90
2021/06/03 13:39:22;;;;;;;4.05;1.80;;;;;;;;;;6135744;23;20175;-92
2021/06/03 13:42:29;;;;;;;5.43;1.80;;;;;;;;;;6152510;23;20658;-90
2021/06/03 13:45:37;;;;;;;4.68;1.90;;;;;;;;;;6154731;23;20510;-92
2021/06/03 13:48:42;;;;;;;1.75;1.38;;;;;;;;;;6152151;23;20191;-91
2021/06/03 13:52:01;;;;;;;2.30;1.45;;;;;;;;;;6149105;23;20220;-91
2021/06/03 13:55:17;;;;;;;7.55;2.05;;;;;;;;;;6150688;23;20299;-91
2021/06/03 13:58:33;;;;;;;3.85;1.60;;;;;;;;;;6133800;23;20184;-91
2021/06/03 14:01:45;;;;;;;4.57;2.25;;;;;;;;;;6150456;23;20172;-89
2021/06/03 14:04:50;;;;;;;3.40;1.95;;;;;;;;;;6152482;23;20491;-91
2021/06/03 14:08:09;;;;;;;6.03;2.60;;;;;;;;;;6148937;23;20172;-91
2021/06/03 14:11:30;;;;;;;3.08;1.88;;;;;;;;;;6150571;23;20196;-91
2021/06/03 14:14:38;;;;;;;2.97;1.60;;;;;;;;;;6151686;23;20175;-91
2021/06/03 14:17:43;;;;;;;3.35;1.50;;;;;;;;;;6150237;23;20178;-92
2021/06/03 14:20:48;;;;;;;4.75;1.70;;;;;;;;;;6150321;23;20227;-90
2021/06/03 14:23:54;;;;;;;3.60;1.70;;;;;;;;;;6150386;23;20175;-92
2021/06/03 14:27:08;;;;;;;2.60;1.50;;;;;;;;;;6150327;23;20171;-91
2021/06/03 14:30:14;;;;;;;2.80;1.60;;;;;;;;;;6151396;23;20199;-91
2021/06/03 14:33:23;;;;;;;3.60;1.48;;;;;;;;;;6151486;23;20257;-91
2021/06/03 14:36:28;;;;;;;5.97;2.72;;;;;;;;;;6151098;23;20188;-91
2021/06/03 14:39:57;;;;;;;4.38;1.60;;;;;;;;;;6149976;23;20195;-91
2021/06/03 14:43:06;;;;;;;3.90;1.38;;;;;;;;;;6151982;23;20254;-91
2021/06/03 14:46:13;;;;;;;2.90;1.50;;;;;;;;;;6166123;23;20191;-91
2021/06/03 14:49:19;;;;;;;2.75;1.83;;;;;;;;;;6164478;23;20179;-90
2021/06/03 14:52:30;;;;;;;2.08;1.58;;;;;;;;;;6166165;23;20284;-91
2021/06/03 14:55:36;;;;;;;3.55;1.50;;;;;;;;;;6166891;23;20188;-91
2021/06/03 14:58:41;;;;;;;3.28;1.48;;;;;;;;;;6168022;23;20172;-92
2021/06/03 15:01:46;;;;;;;1.90;1.35;;;;;;;;;;6169701;23;20168;-90
2021/06/03 15:04:54;;;;;;;3.40;1.58;;;;;;;;;;6167677;23;20167;-90
2021/06/03 15:07:59;;;;;;;3.83;1.67;;;;;;;;;;6169000;23;20177;-90
2021/06/03 15:11:05;;;;;;;6.65;1.90;;;;;;;;;;6169060;23;20580;-90
2021/06/03 15:14:18;;;;;;;3.40;1.80;;;;;;;;;;6170749;23;20172;-91
2021/06/03 15:17:22;;;;;;;2.63;1.55;;;;;;;;;;6169277;23;20261;-90
2021/06/03 15:20:29;;;;;;;4.82;1.80;;;;;;;;;;6169874;23;20196;-89
2021/06/03 15:23:34;;;;;;;4.68;1.52;;;;;;;;;;6166557;23;20168;-91
2021/06/03 15:26:39;;;;;;;3.80;1.70;;;;;;;;;;6167997;23;20172;-90
2021/06/03 15:29:44;;;;;;;1.95;1.42;;;;;;;;;;6168011;23;20169;-90
2021/06/03 15:32:49;;;;;;;4.35;1.70;;;;;;;;;;6168347;23;20587;-91
2021/06/03 15:35:55;;;;;;;3.45;1.98;;;;;;;;;;6167063;23;20504;-90
2021/06/03 15:38:59;;;;;;;4.28;1.70;;;;;;;;;;6168068;23;20611;-90
2021/06/03 15:42:05;;;;;;;3.75;1.70;;;;;;;;;;6167148;23;20193;-90
2021/06/03 15:45:11;;;;;;;1.83;1.48;;;;;;;;;;6151277;23;20220;-89
2021/06/03 15:48:18;;;;;;;3.45;2.00;;;;;;;;;;6150709;23;20176;-90
2021/06/03 15:51:24;;;;;;;3.47;2.22;;;;;;;;;;6150830;23;20715;-89
2021/06/03 15:54:29;;;;;;;4.75;2.30;;;;;;;;;;6150302;23;20175;-91
2021/06/03 15:57:34;;;;;;;3.83;1.70;;;;;;;;;;6150229;23;20240;-90
2021/06/03 16:00:39;;;;;;;2.42;1.65;;;;;;;;;;6149895;23;20211;-90
2021/06/03 16:03:43;;;;;;;2.38;1.58;;;;;;;;;;6149779;23;20224;-91
2021/06/03 16:06:49;;;;;;;5.22;1.80;;;;;;;;;;6152542;23;20172;-90
2021/06/03 16:09:54;;;;;;;3.63;1.75;;;;;;;;;;6151734;23;20173;-90
2021/06/03 16:12:59;;;;;;;4.13;1.80;;;;;;;;;;6151346;23;20235;-90
2021/06/03 16:16:04;;;;;;;3.72;1.85;;;;;;;;;;6150360;23;20216;-89
2021/06/03 16:19:09;;;;;;;11.20;1.52;;;;;;;;;;6151456;23;20553;-90
2021/06/03 16:22:16;;;;;;;3.60;1.77;;;;;;;;;;6149851;23;20169;-90
2021/06/03 16:25:20;;;;;;;4.90;2.00;;;;;;;;;;6151942;23;20221;-89
2021/06/03 16:28:25;;;;;;;5.78;2.63;;;;;;;;;;6151981;23;20167;-92
2021/06/03 16:31:35;;;;;;;2.85;1.55;;;;;;;;;;6150431;23;20523;-91
2021/06/03 16:34:41;;;;;;;3.05;1.75;;;;;;;;;;6151703;23;20208;-91
2021/06/03 16:37:49;;;;;;;3.00;1.90;;;;;;;;;;6153580;23;20156;-90
2021/06/03 16:40:53;;;;;;;2.40;1.60;;;;;;;;;;6151589;23;20714;-89
2021/06/03 16:44:03;;;;;;;8.00;2.00;;;;;;;;;;6168850;23;20196;-91
2021/06/03 16:47:07;;;;;;;2.35;1.70;;;;;;;;;;6169754;23;20558;-89
2021/06/03 16:50:13;;;;;;;6.50;2.40;;;;;;;;;;6171218;23;20172;-92
2021/06/03 16:53:19;;;;;;;5.13;2.78;;;;;;;;;;6171700;23;20176;-92
2021/06/03 16:56:24;;;;;;;6.28;2.30;;;;;;;;;;6171481;23;20172;-92
2021/06/03 16:59:29;;;;;;;5.97;2.33;;;;;;;;;;6171211;23;20175;-92
2021/06/03 17:02:34;;;;;;;2.60;2.10;;;;;;;;;;6171145;23;20164;-91
2021/06/03 17:05:39;;;;;;;5.65;2.40;;;;;;;;;;6171074;23;20225;-91
2021/06/03 17:08:48;;;;;;;4.43;2.53;;;;;;;;;;6170628;23;20171;-90
2021/06/03 17:11:52;;;;;;;4.53;2.83;;;;;;;;;;6170665;23;20196;-92
2021/06/03 17:14:58;;;;;;;6.03;2.42;;;;;;;;;;6170018;23;20169;-92
2021/06/03 17:18:03;;;;;;;7.35;2.38;;;;;;;;;;6169251;23;20238;-93
2021/06/03 17:21:08;;;;;;;8.75;2.60;;;;;;;;;;6171399;23;20182;-92
2021/06/03 17:24:14;;;;;;;5.20;2.30;;;;;;;;;;6169618;23;20498;-94
2021/06/03 17:27:18;;;;;;;5.20;2.45;;;;;;;;;;6168548;23;20223;-93
2021/06/03 17:30:23;;;;;;;5.82;3.15;;;;;;;;;;6169542;23;20242;-92
2021/06/03 17:33:29;;;;;;;4.82;1.90;;;;;;;;;;6168032;23;20184;-92
2021/06/03 17:36:33;;;;;;;5.45;2.40;;;;;;;;;;6170211;23;20169;-93
2021/06/03 17:39:40;;;;;;;6.25;2.42;;;;;;;;;;6170506;23;20172;-93
2021/06/03 17:42:45;;;;;;;4.18;2.38;;;;;;;;;;6170833;23;20191;-93
2021/06/03 17:45:50;;;;;;;6.40;2.50;;;;;;;;;;6154162;23;20234;-93
2021/06/03 17:49:03;;;;;;;5.00;2.30;;;;;;;;;;6156570;23;20220;-93
2021/06/03 17:52:09;;;;;;;18.05;9.57;;;;;;;;;;6155278;23;20196;-93
2021/06/03 17:55:19;;;;;;;3.50;2.42;;;;;;;;;;6153703;23;20185;-94
2021/06/03 17:58:25;;;;;;;4.57;2.22;;;;;;;;;;6152461;23;20549;-92
2021/06/03 18:01:32;;;;;;;5.95;2.65;;;;;;;;;;6153362;23;20216;-94
2021/06/03 18:04:37;;;;;;;5.30;2.75;;;;;;;;;;6154204;23;20289;-93
2021/06/03 18:07:42;;;;;;;5.65;2.53;;;;;;;;;;6152449;23;20674;-94
2021/06/03 18:10:50;;;;;;;10.05;2.60;;;;;;;;;;6152945;23;20523;-93
2021/06/03 18:13:55;;;;;;;8.70;3.50;;;;;;;;;;6153945;23;20167;-93
2021/06/03 18:17:00;;;;;;;8.95;2.88;;;;;;;;;;6153461;23;20200;-95
2021/06/03 18:20:06;;;;;;;6.75;2.70;;;;;;;;;;6153639;23;20176;-93
2021/06/03 18:23:11;;;;;;;6.00;2.60;;;;;;;;;;6153289;23;20164;-94
2021/06/03 18:26:19;;;;;;;6.70;2.88;;;;;;;;;;6154813;23;20204;-93
2021/06/03 18:29:24;;;;;;;9.55;2.70;;;;;;;;;;6152148;23;20168;-92
2021/06/03 18:32:32;;;;;;;5.85;2.72;;;;;;;;;;6154058;23;20248;-93
2021/06/03 18:35:38;;;;;;;10.23;2.45;;;;;;;;;;6152900;23;20189;-93
2021/06/03 18:38:44;;;;;;;6.55;3.03;;;;;;;;;;6153362;23;20217;-93
2021/06/03 18:41:51;;;;;;;4.32;2.30;;;;;;;;;;6154113;23;20210;-92